neil on the web!

ADDS Results

1212 UTC 15 August 2022

EGJB 151150Z 28006KT 250V310 8000 VCSH FEW002 19/18 Q1005
EGJB 151120Z 27010KT 7000 VCSH SCT002 19/18 Q1005
EGJB 151050Z 26011KT 7000 2000S VCSH VCFG FEW000 18/18 Q1005
EGJB 151020Z 25016KT 0800 R27/0800U FG SCT000 BKN001 18/18 Q1005
TAF EGJB 151103Z 1512/1521 26010KT 7000 SCT001 BKN004
TEMPO 1512/1514 5000 -SHRA BKN040CB
PROB30
TEMPO 1512/1513 0500 FG BKN000
BECMG 1513/1515 SCT005
EGJJ 151150Z 26010KT 9999 6000NW -SHRA VCFG FEW000 SCT003 BKN006 19/18 Q1005
EGJJ 151120Z 27009KT 250V310 9999 VCSH VCFG FEW000 SCT002 BKN004 19/19 Q1005
EGJJ 151050Z 26016KT 8000 VCSH VCFG FEW000 SCT002 BKN004 18/18 Q1005
EGJJ 151020Z 26017KT 8000 VCSH VCFG FEW000 SCT003 BKN004 18/18 Q1005
TAF EGJJ 151103Z 1512/1521 25010KT 9000 FEW002 SCT005
TEMPO 1512/1514 5000 -SHRA BKN040CB
PROB30
TEMPO 1515/1521 9999
EGKK 151150Z 23008KT 190V260 CAVOK 26/15 Q1003
EGKK 151120Z 23009KT 190V260 CAVOK 26/15 Q1003
EGKK 151050Z 21008KT 170V240 CAVOK 25/15 Q1003
EGKK 151020Z 23009KT 190V270 CAVOK 25/16 Q1003
TAF EGKK 151058Z 1512/1618 22008KT CAVOK
PROB30
TEMPO 1512/1521 3000 +TSGS BKN045CB
PROB30
TEMPO 1606/1612 6000 SHRA
TEMPO 1612/1618 6000 SHRA
PROB30
TEMPO 1612/1618 3000 +SHRA BKN040CB
EGSS 151150Z AUTO 24009KT 210V270 9999 NCD 29/12 Q1002
EGSS 151120Z AUTO 23008KT 190V270 9999 NCD 30/12 Q1002
EGSS 151050Z AUTO 20008KT 9999 NCD 28/12 Q1002
EGSS 151020Z AUTO 19007KT 9999 NCD 27/12 Q1002
TAF EGSS 151102Z 1512/1618 22007KT CAVOK
TEMPO 1512/1524 7000 SHRA
PROB40
TEMPO 1513/1521 3000 +SHRA TSGR BKN048CB
BECMG 1518/1521 31010KT
BECMG 1602/1605 24005KT
PROB30
TEMPO 1608/1612 7000 SHRA
TEMPO 1612/1618 6000 SHRA
PROB30
TEMPO 1613/1618 3000 +TSRA
EGGW 151150Z AUTO 25013KT 9999 NCD 28/06 Q1002
EGGW 151120Z AUTO 25008KT 210V290 9999 NCD 28/07 Q1002
EGGW 151050Z AUTO 25009KT 9999 NCD 28/08 Q1002
EGGW 151020Z AUTO 27009KT 240V300 9999 NCD 28/08 Q1002
TAF EGGW 151102Z 1512/1612 22008KT CAVOK
TEMPO 1512/1524 6000 SHRA
PROB40
TEMPO 1513/1521 3000 +SHRA TSGR BKN048CB
BECMG 1516/1519 31010KT
BECMG 1601/1604 24005KT
PROB30
TEMPO 1608/1612 7000 SHRA
EGSH 151150Z VRB04KT CAVOK 28/15 Q1002 NOSIG
EGSH 151120Z 17006KT 120V270 CAVOK 28/16 Q1001 NOSIG
EGSH 151050Z 15005KT 090V190 CAVOK 27/15 Q1001 NOSIG
EGSH 151020Z 14006KT 090V180 CAVOK 27/16 Q1002 NOSIG
TAF EGSH 151106Z 1512/1521 10006KT 9999 FEW045
TEMPO 1512/1521 7000 SHRA
PROB30
TEMPO 1512/1519 4000 +SHRAGR BKN045CB
EGLC 151150Z AUTO 26008KT 200V280 9999 NCD 27/14 Q1002
EGLC 151120Z AUTO 25010KT 9999 NCD 28/14 Q1002
EGLC 151050Z AUTO 25009KT 9999 NCD 27/15 Q1002
EGLC 151020Z AUTO 22007G18KT 9999 NCD 26/15 Q1002
TAF EGLC 151058Z 1512/1521 22007KT CAVOK
PROB30
TEMPO 1512/1520 3000 +SHRA +TSGS BKN045CB
EGMC 151150Z 19010KT 160V240 CAVOK 29/14 Q1002
EGMC 151120Z 19008KT 150V230 CAVOK 28/15 Q1002
EGMC 151050Z 20008KT CAVOK 27/15 Q1002
EGMC 151020Z 21008KT CAVOK 25/15 Q1002
TAF EGMC 151058Z 1512/1521 22005KT CAVOK
PROB30
TEMPO 1512/1519 3000 +SHRA +TSGR BKN045CB
EGLL 151150Z AUTO 24009KT 210V280 9999 NCD 27/13 Q1002 NOSIG
EGLL 151120Z AUTO 25009KT 210V280 9999 NCD 27/14 Q1002 NOSIG
EGLL 151050Z AUTO 26009KT 210V290 9999 NCD 27/14 Q1002 NOSIG
EGLL 151020Z AUTO 22010KT 9999 NCD 26/14 Q1002 NOSIG
TAF EGLL 151102Z 1512/1618 24008KT CAVOK
PROB30
TEMPO 1513/1520 3000 +SHRA +TSGR BKN045CB
PROB30
TEMPO 1520/1608 8000 SHRA BKN045
TEMPO 1608/1618 7000 SHRA
PROB30
TEMPO 1612/1618 3000 +SHRA +TSGR BKN045CB
EGHI 151150Z 22007KT 160V270 CAVOK 24/16 Q1003
EGHI 151120Z 18006KT 120V240 CAVOK 24/16 Q1003
EGHI 151050Z 18008KT 140V230 CAVOK 23/16 Q1003
EGHI 151020Z 17005KT 120V230 CAVOK 23/16 Q1003
TAF EGHI 151056Z 1512/1521 21007KT CAVOK
PROB30
TEMPO 1515/1518 7000 SHRA
EGHH 151150Z 30008KT 9999 FEW018 24/14 Q1003
EGHH 151120Z 27006KT 240V300 9999 FEW013 23/16 Q1003
EGHH 151050Z 23005KT 170V300 9999 FEW013 22/17 Q1003
EGHH 151020Z 19006KT 150V220 9999 FEW012 21/16 Q1003
TAF EGHH 151056Z 1512/1521 22005KT CAVOK
PROB30
TEMPO 1515/1518 7000 SHRA
EGCC 151150Z 29006KT 9999 9000NW VCSH FEW032CB 23/14 Q1003 TEMPO SHRA
EGCC 151120Z 29009KT CAVOK 23/14 Q1003 TEMPO SHRA
EGCC 151050Z 29005KT CAVOK 23/14 Q1003 TEMPO SHRA
EGCC 151020Z AUTO 30006KT 280V340 9999 NCD 22/15 Q1003 TEMPO SHRA
TAF EGCC 151103Z 1512/1618 30004KT 9999 SCT045
TEMPO 1512/1514 7000 SHRA
PROB30
TEMPO 1512/1514 4000 +SHRAGR
PROB30
TEMPO 1514/1522 7000 SHRA
TEMPO 1600/1610 8000 BKN010
PROB30
TEMPO 1600/1607 4000 BR BKN003
TEMPO 1610/1618 7000 SHRA
PROB40
TEMPO 1610/1615 4000 +SHRAGS BKN010
EGNX 151150Z 29008KT 9999 -RA FEW048 21/16 Q1002
EGNX 151120Z 27012KT CAVOK 22/15 Q1002
EGNX 151050Z 26013KT CAVOK 23/14 Q1002
EGNX 151020Z 27009KT CAVOK 25/13 Q1002
TAF EGNX 151055Z 1512/1612 29008KT CAVOK
PROB40
TEMPO 1512/1515 7000 SHRA
PROB40
TEMPO 1515/1524 3000 +TSGS +SHRA BKN045CB
TEMPO 1605/1612 7000 SHRA BKN010
PROB30
TEMPO 1609/1612 4000 +SHRA
EGGP 151150Z 28006KT 9999 -SHRA FEW037 20/18 Q1003
EGGP 151120Z 30006KT 7000 -SHRA FEW035 20/17 Q1003
EGGP 151050Z 25006KT 220V290 7000 -SHRA FEW035 20/17 Q1003
EGGP 151020Z 28004KT 250V340 9999 -DZ FEW040 21/16 Q1003
TAF EGGP 151103Z 1512/1612 30007KT 9999 SCT045
TEMPO 1512/1514 7000 SHRA
PROB30
TEMPO 1512/1514 4000 +SHRAGR
PROB30
TEMPO 1514/1522 7000 SHRA
TEMPO 1600/1610 BKN012
PROB30
TEMPO 1602/1610 BKN005
TEMPO 1610/1612 7000 SHRA
PROB40
TEMPO 1610/1612 4000 +SHRAGS BKN012
EGNM 151150Z 32003KT 260V030 CAVOK 22/14 Q1003
EGNM 151120Z 02005KT 330V050 CAVOK 22/14 Q1002
EGNM 151050Z 03006KT 360V090 CAVOK 22/15 Q1003
EGNM 151020Z 32004KT 250V030 CAVOK 23/15 Q1003
TAF EGNM 151106Z 1512/1612 32006KT 9999 SCT045
TEMPO 1512/1612 7000 SHRA
PROB30
TEMPO 1513/1522 4000 +TSRAGR
PROB30
TEMPO 1522/1524 4000 +SHRAGR
TEMPO 1600/1610 BKN004
PROB30
TEMPO 1600/1609 0200 FG BKN001
TEMPO 1609/1612 7000 SHRA
PROB30
TEMPO 1610/1612 4000 +SHRAGS
EGBB 151150Z 31007KT 9999 FEW028 24/14 Q1003
EGBB 151120Z 34008KT CAVOK 23/14 Q1003
EGBB 151050Z 33010KT CAVOK 23/14 Q1003
EGBB 151020Z 31010KT 290V350 CAVOK 23/15 Q1003
TAF EGBB 151055Z 1512/1612 32009KT CAVOK
PROB30
TEMPO 1512/1515 7000 SHRA
PROB30
TEMPO 1515/1519 3000 +TSGS +SHRA BKN045CB
TEMPO 1604/1612 7000 SHRA BKN010
PROB30
TEMPO 1609/1612 4000 +SHRA
EGGD 151150Z AUTO 05008KT 9999 NCD 19/17 Q1004
EGGD 151120Z AUTO VRB02KT 6000 -RA NCD 19/17 Q1004
EGGD 151050Z AUTO 22004KT 170V250 9999 NCD 19/16 Q1005
EGGD 151020Z AUTO 25007KT 9999 -RA NCD 18/16 Q1005
TAF EGGD 151102Z 1512/1612 25006KT CAVOK
TEMPO 1512/1521 6000 SHRA
PROB30
TEMPO 1512/1520 3000 +SHRA BKN045CB
TEMPO 1605/1612 6000 SHRA
PROB40
TEMPO 1608/1612 3000 +SHRA BKN030
EGFF 151150Z AUTO 07005KT 9999 SCT043 21/17 Q1003
EGFF 151120Z AUTO 08004KT 050V110 9999 NCD 20/17 Q1004
EGFF 151050Z AUTO 08005KT 9999 NCD 20/16 Q1004
EGFF 151020Z 10006KT 9999 FEW047 20/17 Q1004
TAF EGFF 151102Z 1512/1612 24006KT CAVOK
TEMPO 1512/1522 6000 SHRA
PROB30
TEMPO 1512/1520 3000 +SHRA BKN045CB
TEMPO 1606/1612 6000 SHRA
PROB40
TEMPO 1608/1612 3000 +SHRA BKN030CB
EGTE 151150Z 19004KT 150V220 CAVOK 23/15 Q1003
EGTE 151120Z 30002KT CAVOK 23/15 Q1003
EGTE 151050Z VRB02KT CAVOK 22/17 Q1003
EGTE 151020Z 36004KT 310V080 CAVOK 20/17 Q1003
TAF EGTE 151056Z 1512/1521 VRB03KT CAVOK
TEMPO 1512/1521 7000 SHRA
PROB30
TEMPO 1512/1518 3000 +TSGS +SHRA BKN045CB
BECMG 1515/1518 16010KT
EGPF 151150Z AUTO 05008KT 9999 -RA NCD 18/16 Q1004
EGPF 151120Z AUTO 06006KT 9999 -RA SCT019 SCT049 18/16 Q1004
EGPF 151050Z AUTO VRB01KT 9999 -RA BKN019 18/16 Q1004
EGPF 151020Z AUTO 07004KT 9999 -RA NCD 17/16 Q1004
TAF EGPF 151101Z 1512/1612 05005KT 9999 FEW040
TEMPO 1512/1604 5000 RA SHRA BKN012
PROB40
TEMPO 1512/1521 3000 +RA +SHRA BKN009 BKN040CB
PROB30
TEMPO 1514/1518 TS
PROB30
TEMPO 1604/1609 BKN012
EGPH 151150Z 08006KT 040V120 7000 -RA FEW010 17/15 Q1004 RESHRA
EGPH 151120Z 09004KT 060V130 7000 SHRA SCT008 16/15 Q1004
EGPH 151050Z 09005KT 7000 -SHRA SCT007 16/15 Q1004 RESHRA
EGPH 151020Z 08008KT 050V120 9999 -RA FEW008 17/15 Q1004
TAF EGPH 151101Z 1512/1612 09007KT 9999 SCT010
TEMPO 1512/1608 5000 RA SHRA BKN008
PROB40
TEMPO 1512/1602 3000 +RA +SHRA BKN004 BKN040CB
PROB30
TEMPO 1512/1524 TS
EGPK 151150Z 36003KT 330V040 9999 -RA FEW009 BKN016 18/16 Q1003
EGPK 151120Z VRB02KT 9999 -RA FEW009 BKN022 18/16 Q1003
EGPK 151050Z 03003KT 350V050 7000 -RA FEW018 SCT046 18/16 Q1003
EGPK 151020Z VRB02KT 7000 -RA FEW020 SCT046 17/16 Q1003
TAF EGPK 151101Z 1512/1612 04006KT 9999 FEW025 SCT045
TEMPO 1512/1612 5000 RA SHRA BKN010
PROB30
TEMPO 1512/1524 3000 +SHRA BKN009 BKN040CB
PROB30
TEMPO 1514/1517 TS
EHAM 151155Z 21008KT 180V250 CAVOK 24/17 Q1004 NOSIG
EHAM 151125Z 23009KT 180V260 CAVOK 25/17 Q1003 TEMPO FM1200 7000 -SHRA SCT050CB
EHAM 151055Z 21009KT 170V290 CAVOK 25/17 Q1003 TEMPO FM1200 7000 -SHRA SCT050CB
EHAM 151025Z 21011KT 180V240 CAVOK 25/15 Q1003 TEMPO FM1400 7000 -SHRA SCT050CB
TAF EHAM 151106Z 1512/1618 24010KT CAVOK
PROB30
TEMPO 1512/1522 18015G25KT 5000 SHRA TSRA SCT050CB
BECMG 1518/1521 18005KT
BECMG 1610/1612 24011KT
LFLS 151200Z AUTO 25004KT 140V300 CAVOK 25/12 Q1010 NOSIG
LFLS 151130Z AUTO 26007KT 230V310 9999 FEW042 SCT210 25/13 Q1010 NOSIG
LFLS 151100Z AUTO 27006KT 200V350 9999 FEW037 SCT170 25/14 Q1010 NOSIG
LFLS 151030Z AUTO 31005KT 260V350 9999 FEW034 23/14 Q1010 NOSIG
TAF LFLS 150800Z 1509/1609 VRB02KT 9999 SCT060
BECMG 1513/1515 CAVOK
LFLL 151200Z 25006KT 190V350 CAVOK 26/13 Q1009 NOSIG
LFLL 151130Z 24003KT 160V310 CAVOK 26/12 Q1009 NOSIG
LFLL 151100Z 20006KT 160V250 9999 FEW046 SCT120 26/13 Q1009 NOSIG
LFLL 151030Z VRB03KT 9999 FEW043 SCT086 25/13 Q1009 NOSIG
TAF LFLL 151100Z 1512/1618 18005KT CAVOK
PROB40
TEMPO 1512/1518 FEW050TCU
TEMPO 1515/1521 02008KT
TEMPO 1521/1609 VRB02KT
BECMG 1611/1613 18012KT
LFLC 151200Z AUTO 23008KT 180V270 9999 SCT050 SCT064 25/13 Q1009 NOSIG
LFLC 151130Z AUTO 25014KT 9999 FEW048 SCT056 24/13 Q1010 NOSIG
LFLC 151100Z AUTO 27015KT 9999 FEW062 24/13 Q1010 NOSIG
LFLC 151030Z AUTO 26012KT 220V310 9999 FEW047 SCT120 24/13 Q1009 NOSIG
TAF LFLC 150500Z 1506/1606 16006KT 9999 SCT060
PROB30
TEMPO 1506/1508 -SHRA SCT080TCU
BECMG 1508/1510 26010KT
BECMG 1523/1601 CAVOK
TAF LFRD 151100Z 1512/1612 VRB05KT 9999 SCT015
TEMPO 1513/1517 35010KT
TEMPO 1512/1514 SHRA BKN012 SCT040TCU
PROB40
TEMPO 1514/1518 3000 SHRA BKN040CB
TEMPO 1603/1612 4000 SHRA BKN040CB
BECMG 1603/1606 16010KT
PROB40
TEMPO 1610/1612 2000 TSRA BKN008 BKN015CB
LFRC 151200Z AUTO 23013KT 9999 SCT008 SCT035 OVC100 19/17 Q1005 TEMPO 4000 SHRA
BKN008 BKN040TCU
LFRC 151130Z AUTO 23013KT 9999 FEW009 SCT013 OVC110 20/17 Q1005 TEMPO 4000 SHRA
BKN008 BKN040TCU
LFRC 151100Z AUTO 23011KT 210V270 9999 FEW017/// BKN130/// BKN160/// //////TCU
21/17 Q1005 BECMG SCT015
LFRC 151030Z AUTO 24010KT 9999 FEW012 SCT140 BKN160 22/17 Q1004 NOSIG
TAF LFRC 151100Z 1512/1521 25012KT 9999 SCT015
TEMPO 1512/1514 4000 SHRA BKN008 BKN040TCU
VHHH 151200Z 16009KT 110V210 9999 FEW018 30/25 Q1005 NOSIG
VHHH 151130Z 15008KT 110V190 9999 FEW020 30/25 Q1005 NOSIG
VHHH 151100Z 15009KT 110V170 9999 FEW020 30/25 Q1004 NOSIG
VHHH 151030Z 12008KT 060V160 9999 FEW028 31/24 Q1004 NOSIG
TAF VHHH 151100Z 1512/1618 VRB05KT 9999 FEW020 TX31/1606Z TN26/1522Z
TEMPO 1512/1516 12010KT
TEMPO 1521/1603 VRB15G25KT 2500 TSRA SHRA FEW010CB SCT020
TEMPO 1603/1609 4000 SHRA FEW010CB SCT020
BECMG 1607/1609 09010KT